< < Back
Terminal Aerodrome Forecast


Current Version              Previous Versions:   1  2  3  4  5  6  7  8  9  

Terminal Aerodrome Forecast

562
FTUS42 KILM 302300
TAFILM
TAF
KILM 302324Z 3100/3124 03005KT P6SM SCT025 SCT040 BKN120
     FM311400 02010KT P6SM BKN040
     FM311900 35008KT P6SM SCT040=

Latest METAR

191
SAUS70 KWBC 311256
MTRILM
METAR KILM 311253Z 02008KT 10SM CLR 12/08 A2991 RMK AO2 SLP128
T01170083


USA.gov is the U.S. government's official web portal to all federal, state and local government web resources and services.